createdAt,value
2023-05-10T00:00:49.280Z,8.983724
2023-05-10T00:05:50.905Z,9.043742
2023-05-10T00:10:52.394Z,9.059618
2023-05-10T00:15:54.045Z,9.10304
2023-05-10T00:20:55.666Z,9.399278
2023-05-10T00:25:57.176Z,8.560938
2023-05-10T00:30:58.643Z,8.726866
2023-05-10T00:36:00.255Z,8.83484
2023-05-10T00:41:01.924Z,9.100342
2023-05-10T00:46:03.619Z,8.377952
2023-05-10T00:51:05.303Z,8.224224
2023-05-10T00:56:06.837Z,8.509306
2023-05-10T01:01:08.544Z,9.129786
2023-05-10T01:06:09.849Z,8.840294
2023-05-10T01:11:11.186Z,9.27057
2023-05-10T01:16:12.896Z,9.012682
2023-05-10T01:21:14.306Z,8.141246
2023-05-10T01:26:16.071Z,8.400736
2023-05-10T01:31:17.962Z,8.519456
2023-05-10T01:36:19.568Z,8.718332
2023-05-10T01:41:21.197Z,8.175238
2023-05-10T01:46:22.784Z,8.677284
2023-05-10T01:51:24.496Z,8.224658
2023-05-10T01:56:26.177Z,8.397332
2023-05-10T02:01:27.462Z,8.151682
2023-05-10T02:06:28.731Z,8.220534
2023-05-10T02:11:30.044Z,8.65963
2023-05-10T02:16:31.367Z,8.105342
2023-05-10T02:21:33.077Z,7.527388
2023-05-10T02:26:34.333Z,7.54488
2023-05-10T02:31:35.636Z,7.891758
2023-05-10T02:36:36.884Z,8.214508
2023-05-10T02:41:38.279Z,7.604302
2023-05-10T02:46:39.637Z,7.870414
2023-05-10T02:51:41.043Z,7.608874
2023-05-10T02:56:42.527Z,8.038392
2023-05-10T03:01:43.841Z,7.884092
2023-05-10T03:06:45.345Z,8.358782
2023-05-10T03:11:47.058Z,7.723618
2023-05-10T03:16:48.353Z,7.778902
2023-05-10T03:21:50.074Z,7.712424
2023-05-10T03:26:51.717Z,7.304946
2023-05-10T03:31:53.131Z,7.468662
2023-05-10T03:36:54.791Z,7.160186
2023-05-10T03:41:56.421Z,7.466464
2023-05-10T03:46:58.090Z,7.370256
2023-05-10T03:51:59.747Z,6.143722
2023-05-10T03:57:01.401Z,7.18491
2023-05-10T04:02:03.209Z,6.367604
2023-05-10T04:07:04.912Z,5.927044
2023-05-10T04:12:08.942Z,7.593394
2023-05-10T04:17:11.975Z,7.508828
2023-05-10T04:22:13.626Z,7.867606
2023-05-10T04:27:15.263Z,6.991326
2023-05-10T04:32:16.870Z,7.268022
2023-05-10T04:37:18.585Z,7.340092
2023-05-10T04:42:20.295Z,6.962778
2023-05-10T04:47:22.022Z,7.592512
2023-05-10T04:52:23.530Z,7.061942
2023-05-10T04:57:25.117Z,7.39601
2023-05-10T05:02:26.740Z,7.657264
2023-05-10T05:07:28.198Z,8.047212
2023-05-10T05:12:29.616Z,7.559726
2023-05-10T05:17:30.979Z,7.947204
2023-05-10T05:22:32.473Z,6.981028
2023-05-10T05:27:33.795Z,7.785958
2023-05-10T05:32:35.179Z,8.101652
2023-05-10T05:37:36.522Z,8.384698
2023-05-10T05:42:38.159Z,8.571374
2023-05-10T05:47:39.448Z,8.662724
2023-05-10T05:52:40.885Z,9.086106
2023-05-10T05:57:42.638Z,8.851164
2023-05-10T06:02:44.285Z,8.514126
2023-05-10T06:07:46.171Z,8.337152
2023-05-10T06:12:47.885Z,8.9996
2023-05-10T06:17:49.438Z,9.904742
2023-05-10T06:22:51.004Z,10.396976
2023-05-10T06:27:53.971Z,10.139522
2023-05-10T06:32:55.744Z,10.857878
2023-05-10T06:37:57.441Z,9.74074
2023-05-10T06:42:59.096Z,10.958496
2023-05-10T06:48:00.881Z,11.663188
2023-05-10T06:53:02.578Z,11.441748
2023-05-10T06:58:04.305Z,11.924566
2023-05-10T07:03:05.967Z,12.620872
2023-05-10T07:08:07.703Z,13.149758
2023-05-10T07:13:09.488Z,13.25849
2023-05-10T07:18:11.303Z,13.51368
2023-05-10T07:23:12.989Z,14.01468
2023-05-10T07:28:14.932Z,13.710424
2023-05-10T07:33:16.621Z,14.729904
2023-05-10T07:38:18.285Z,14.621252
2023-05-10T07:43:19.981Z,14.850402
2023-05-10T07:48:21.932Z,14.002046
2023-05-10T07:53:23.602Z,15.397742
2023-05-10T07:58:25.323Z,15.780566
2023-05-10T08:03:27.183Z,16.60147
2023-05-10T08:08:28.646Z,15.313624
2023-05-10T08:13:29.944Z,16.440372
2023-05-10T08:18:31.355Z,16.447442
2023-05-10T08:23:32.742Z,16.48142
2023-05-10T08:28:34.257Z,17.520726
2023-05-10T08:33:35.560Z,17.93666
2023-05-10T08:38:36.874Z,17.064368
2023-05-10T08:43:38.411Z,16.875548
2023-05-10T08:48:40.178Z,18.38181
2023-05-10T08:53:41.468Z,18.028648
2023-05-10T08:58:42.811Z,18.07393
2023-05-10T09:03:44.452Z,18.443958
2023-05-10T09:08:45.786Z,18.873842
2023-05-10T09:13:47.395Z,19.494582
2023-05-10T09:18:49.181Z,19.87567
2023-05-10T09:23:51.099Z,19.951334
2023-05-10T09:28:53.057Z,19.282544
2023-05-10T09:33:54.888Z,20.059714
2023-05-10T09:38:56.479Z,20.836722
2023-05-10T09:43:57.905Z,20.30626
2023-05-10T09:48:59.220Z,20.133872
2023-05-10T09:54:00.547Z,19.983358
2023-05-10T09:59:02.481Z,20.653166
2023-05-10T10:04:04.208Z,19.322086
2023-05-10T10:09:05.837Z,20.747882
2023-05-10T10:14:07.485Z,20.606134
2023-05-10T10:19:09.068Z,20.40928
2023-05-10T10:24:10.860Z,21.32904
2023-05-10T10:29:12.819Z,20.97638
2023-05-10T10:34:14.634Z,20.33021
2023-05-10T10:39:16.427Z,20.273788
2023-05-10T10:44:18.047Z,20.367282
2023-05-10T10:49:19.819Z,21.481494
2023-05-10T10:54:21.414Z,20.97197
2023-05-10T10:59:23.016Z,19.99245
2023-05-10T11:04:24.688Z,19.56281
2023-05-10T11:09:26.581Z,20.499504
2023-05-10T11:14:28.464Z,20.836464
2023-05-10T11:19:29.912Z,21.113202
2023-05-10T11:24:31.279Z,21.21188
2023-05-10T11:29:32.598Z,21.482824
2023-05-10T11:34:33.938Z,21.47513
2023-05-10T11:39:38.624Z,21.608166
2023-05-10T11:44:40.058Z,21.260174
2023-05-10T11:49:41.353Z,21.184958
2023-05-10T11:54:42.629Z,20.92985
2023-05-10T11:59:44.071Z,21.455644
2023-05-10T12:04:45.377Z,22.704996
2023-05-10T12:09:46.796Z,21.434516
2023-05-10T12:14:48.314Z,21.45198
2023-05-10T12:19:49.560Z,21.146312
2023-05-10T12:24:50.903Z,21.771978
2023-05-10T12:29:52.221Z,20.145786
2023-05-10T12:34:53.541Z,19.958024
2023-05-10T12:39:54.893Z,21.593416
2023-05-10T12:44:56.213Z,21.83239
2023-05-10T12:49:57.465Z,21.61662
2023-05-10T12:54:58.947Z,21.54291
2023-05-10T13:00:00.281Z,22.201578
2023-05-10T13:05:01.767Z,22.143744
2023-05-10T13:10:03.192Z,20.904434
2023-05-10T13:15:04.576Z,20.749578
2023-05-10T13:20:05.895Z,21.485904
2023-05-10T13:25:07.339Z,20.950584
2023-05-10T13:30:08.753Z,21.582574
2023-05-10T13:35:10.417Z,21.431246
2023-05-10T13:40:12.035Z,21.160492
2023-05-10T13:45:13.512Z,21.964992
2023-05-10T13:50:14.765Z,21.68938
2023-05-10T13:55:16.206Z,21.312322
2023-05-10T14:00:18.355Z,21.590702
2023-05-10T14:05:24.127Z,21.687182
2023-05-10T14:10:27.390Z,21.1284
2023-05-10T14:15:28.700Z,20.780408
2023-05-10T14:20:30.052Z,20.894284
2023-05-10T14:25:31.420Z,21.198826
2023-05-10T14:30:32.831Z,21.585722
2023-05-10T14:35:34.227Z,20.982052
2023-05-10T14:40:35.802Z,20.776622
2023-05-10T14:45:37.240Z,20.317224
2023-05-10T14:50:38.603Z,20.721082
2023-05-10T14:55:40.051Z,20.405426
2023-05-10T15:00:41.617Z,20.731422
2023-05-10T15:05:43.551Z,19.900136
2023-05-10T15:10:45.310Z,19.795528
2023-05-10T15:15:47.157Z,19.3773
2023-05-10T15:20:48.832Z,19.530894
2023-05-10T15:25:50.448Z,19.40315
2023-05-10T15:30:52.053Z,17.47121
2023-05-10T15:35:53.730Z,17.6219
2023-05-10T15:40:55.840Z,17.301726
2023-05-10T15:45:57.806Z,17.796052
2023-05-10T15:50:59.411Z,17.158106
2023-05-10T15:56:00.991Z,17.422224
2023-05-10T16:01:02.779Z,16.977332
2023-05-10T16:06:04.121Z,17.277016
2023-05-10T16:11:05.458Z,17.795252
2023-05-10T16:16:06.840Z,16.913338
2023-05-10T16:21:08.460Z,17.1815
2023-05-10T16:26:10.227Z,17.11045
2023-05-10T16:31:11.757Z,16.940966
2023-05-10T16:36:13.297Z,16.045022
2023-05-10T16:41:14.781Z,16.229948
2023-05-10T16:46:16.440Z,16.19331
2023-05-10T16:51:18.087Z,16.572702
2023-05-10T16:56:19.366Z,16.187584
2023-05-10T17:01:20.810Z,15.750726
2023-05-10T17:06:22.184Z,16.005386
2023-05-10T17:11:23.525Z,15.484776
2023-05-10T17:16:25.500Z,15.706598
2023-05-10T17:21:27.176Z,15.252276
2023-05-10T17:26:28.801Z,15.016328
2023-05-10T17:31:30.495Z,15.004238
2023-05-10T17:36:32.058Z,14.804752
2023-05-10T17:41:33.749Z,14.10611
2023-05-10T17:46:35.431Z,14.234098
2023-05-10T17:51:36.798Z,14.613924
2023-05-10T17:56:38.286Z,13.911482
2023-05-10T18:01:40.154Z,14.05536
2023-05-10T18:06:41.735Z,14.063746
2023-05-10T18:11:42.988Z,13.735134
2023-05-10T18:16:44.315Z,13.557182
2023-05-10T18:21:46.184Z,13.842116
2023-05-10T18:26:47.882Z,13.56953
2023-05-10T18:31:49.697Z,14.16005
2023-05-10T18:36:51.514Z,14.237722
2023-05-10T18:41:53.430Z,13.490976
2023-05-10T18:46:55.288Z,13.374468
2023-05-10T18:51:57.236Z,13.234118
2023-05-10T18:56:59.187Z,12.873548
2023-05-10T19:02:01.125Z,13.212054
2023-05-10T19:07:03.134Z,13.164832
2023-05-10T19:12:05.008Z,12.994914
2023-05-10T19:17:06.877Z,13.091394
2023-05-10T19:22:08.528Z,12.743906
2023-05-10T19:27:10.315Z,13.132266
2023-05-10T19:32:12.288Z,12.893238
2023-05-10T19:37:14.200Z,13.341196
2023-05-10T19:42:15.991Z,12.919984
2023-05-10T19:47:17.893Z,12.804358
2023-05-10T19:52:19.500Z,12.31272
2023-05-10T19:57:21.449Z,12.600734
2023-05-10T20:02:23.070Z,12.237518
2023-05-10T20:07:24.774Z,12.316968
2023-05-10T20:12:26.665Z,11.170558
2023-05-10T20:17:28.277Z,10.641524
2023-05-10T20:22:29.915Z,11.83282
2023-05-10T20:27:31.617Z,11.27879
2023-05-10T20:32:33.078Z,11.611108
2023-05-10T20:37:34.619Z,11.09609
2023-05-10T20:42:36.237Z,11.3403
2023-05-10T20:47:37.658Z,11.95226
2023-05-10T20:52:39.300Z,11.020778
2023-05-10T20:57:40.587Z,10.560038
2023-05-10T21:02:41.931Z,11.475792
2023-05-10T21:07:43.472Z,11.094922
2023-05-10T21:12:44.766Z,11.184794
2023-05-10T21:17:46.369Z,10.92457
2023-05-10T21:22:47.653Z,10.466152
2023-05-10T21:27:49.044Z,10.764926
2023-05-10T21:32:50.911Z,11.068558
2023-05-10T21:37:52.479Z,10.81242
2023-05-10T21:42:53.855Z,10.692546
2023-05-10T21:47:55.527Z,10.299056
2023-05-10T21:52:57.209Z,10.363484
2023-05-10T21:57:58.757Z,10.667226
2023-05-10T22:03:00.364Z,9.901376
2023-05-10T22:08:02.210Z,10.76228
2023-05-10T22:13:03.943Z,10.127212
2023-05-10T22:18:05.719Z,10.523796
2023-05-10T22:23:07.420Z,10.316496
2023-05-10T22:28:09.025Z,10.372428
2023-05-10T22:33:10.818Z,10.493618
2023-05-10T22:38:12.442Z,10.170582
2023-05-10T22:43:14.053Z,9.982304
2023-05-10T22:48:15.743Z,10.156618
2023-05-10T22:53:17.451Z,10.3849
2023-05-10T22:58:19.157Z,9.879312
2023-05-10T23:03:20.814Z,9.527862
2023-05-10T23:08:22.375Z,10.158058
2023-05-10T23:13:23.908Z,9.399602
2023-05-10T23:18:25.718Z,9.20823
2023-05-10T23:23:27.339Z,9.92272
2023-05-10T23:28:28.941Z,8.959
2023-05-10T23:33:30.681Z,8.972406
2023-05-10T23:38:32.262Z,9.026846
2023-05-10T23:43:33.609Z,9.72998
2023-05-10T23:48:34.962Z,9.934758
2023-05-10T23:53:36.285Z,9.036238
2023-05-10T23:58:37.576Z,9.147168
